Bryce Canyon Airport Bryce Canyon US
ICAO: KBCE
IATA: BCE
Category: Medium
Scheduled Services: No

Elevation: 7590 ft
TransAlt. 18000 ft.

Airport Communications:
ASOS:135.475
CEDAR CITY RDO:122.2
CTAF/UNICOM:122.8

KBCE Zoom In..

If you have problems with the map follow the link
https://www.worldairports.se/pages/airport.php?
ICAO=KBCE

Runways:

(A) RW 03 length 7395 ft width 75 ft
---- / hdg 33

(B) RW 21 length 7395 ft width 75 ft
---- / hdg 213

Location; KBCE
Day. 11 / Time. 12.53 Zulu
* Altimeter: 30.25
* Temperature: -16° c. -3.2°f.
* Wind from: 260° Speed 05 kn.
Dewpoint: -18° c.
Visibility: 10 Statute Miles.
Clouds: Clear (automated report).

KBCE 111253Z AUTO 26005KT 10SM CLR M16/M18 A3025 RMK AO2 SLP299 I1000 T11611183


Wind From 260°
Speed 05 kn.

 
 
jpsmedia worldairports.se 2019   terms of use